createdAt,value
2023-01-10T00:02:26.594Z,83.28
2023-01-10T00:04:53.337Z,83.82
2023-01-10T00:07:20.195Z,83.44
2023-01-10T00:09:46.971Z,83.60
2023-01-10T00:12:32.516Z,84.27
2023-01-10T00:14:59.531Z,84.14
2023-01-10T00:17:26.347Z,84.06
2023-01-10T00:19:53.176Z,85.53
2023-01-10T00:22:23.548Z,85.28
2023-01-10T00:24:50.263Z,85.38
2023-01-10T00:27:22.693Z,85.18
2023-01-10T00:29:52.899Z,84.81
2023-01-10T00:32:20.467Z,84.24
2023-01-10T00:34:47.200Z,85.72
2023-01-10T00:37:14.315Z,85.27
2023-01-10T00:39:41.196Z,85.71
2023-01-10T00:42:28.674Z,86.73
2023-01-10T00:44:55.436Z,85.48
2023-01-10T00:47:22.325Z,85.13
2023-01-10T00:49:49.179Z,84.11
2023-01-10T00:52:15.971Z,84.22
2023-01-10T00:54:42.734Z,84.23
2023-01-10T00:57:09.520Z,86.54
2023-01-10T00:59:36.212Z,85.23
2023-01-10T01:02:03.058Z,84.80
2023-01-10T01:04:34.134Z,87.11
2023-01-10T01:07:02.240Z,86.33
2023-01-10T01:09:29.859Z,85.29
2023-01-10T01:11:57.107Z,86.56
2023-01-10T01:14:24.394Z,85.99
2023-01-10T01:16:51.421Z,87.14
2023-01-10T01:19:18.428Z,88.97
2023-01-10T01:21:45.270Z,88.64
2023-01-10T01:24:12.102Z,88.44
2023-01-10T01:26:39.904Z,87.69
2023-01-10T01:29:06.676Z,86.16
2023-01-10T01:31:33.513Z,86.83
2023-01-10T01:34:00.505Z,87.57
2023-01-10T01:36:27.332Z,88.57
2023-01-10T01:38:54.058Z,88.84
2023-01-10T01:41:39.625Z,88.08
2023-01-10T01:44:10.632Z,88.57
2023-01-10T01:46:38.009Z,88.05
2023-01-10T01:49:07.121Z,89.59
2023-01-10T01:51:33.898Z,91.30
2023-01-10T01:54:07.663Z,91.18
2023-01-10T01:56:55.828Z,89.74
2023-01-10T01:59:47.158Z,88.88
2023-01-10T02:02:18.301Z,88.87
2023-01-10T02:04:59.925Z,89.43
2023-01-10T02:07:28.532Z,89.77
2023-01-10T02:09:58.612Z,91.74
2023-01-10T02:12:25.607Z,91.25
2023-01-10T02:14:52.297Z,90.47
2023-01-10T02:17:19.291Z,91.35
2023-01-10T02:19:59.449Z,90.54
2023-01-10T02:22:54.591Z,90.93
2023-01-10T02:25:43.435Z,92.18
2023-01-10T02:28:20.541Z,93.27
2023-01-10T02:30:47.383Z,93.62
2023-01-10T02:33:24.582Z,92.48
2023-01-10T02:36:10.517Z,93.61
2023-01-10T02:39:01.853Z,93.96
2023-01-10T02:41:53.179Z,93.66
2023-01-10T02:44:24.856Z,92.96
2023-01-10T02:46:51.969Z,93.25
2023-01-10T02:49:19.552Z,93.19
2023-01-10T02:51:46.288Z,95.35
2023-01-10T02:54:25.443Z,96.39
2023-01-10T02:56:52.127Z,94.99
2023-01-10T02:59:54.063Z,95.71
2023-01-10T03:02:27.024Z,95.65
2023-01-10T03:05:02.340Z,96.20
2023-01-10T03:08:07.839Z,94.26
2023-01-10T03:10:40.607Z,95.74
2023-01-10T03:13:13.416Z,95.63
2023-01-10T03:15:40.515Z,96.03
2023-01-10T03:18:09.197Z,95.80
2023-01-10T03:20:36.144Z,97.04
2023-01-10T03:23:03.580Z,97.76
2023-01-10T03:25:34.115Z,96.92
2023-01-10T03:28:12.930Z,96.56
2023-01-10T03:30:42.041Z,97.27
2023-01-10T03:33:08.783Z,96.72
2023-01-10T03:35:57.653Z,96.06
2023-01-10T03:38:27.633Z,96.62
2023-01-10T03:41:07.804Z,98.89
2023-01-10T03:44:16.589Z,98.33
2023-01-10T03:47:00.968Z,98.58
2023-01-10T03:49:28.038Z,98.24
2023-01-10T03:51:54.800Z,97.66
2023-01-10T03:54:21.510Z,97.18
2023-01-10T03:56:52.366Z,97.22
2023-01-10T03:59:19.855Z,97.90
2023-01-10T04:01:46.847Z,98.70
2023-01-10T04:04:13.786Z,98.05
2023-01-10T04:06:41.673Z,99.14
2023-01-10T04:09:08.741Z,99.98
2023-01-10T04:11:35.525Z,100.00
2023-01-10T04:14:02.320Z,100.00
2023-01-10T04:16:29.096Z,100.00
2023-01-10T04:18:56.232Z,100.00
2023-01-10T04:21:22.937Z,100.00
2023-01-10T04:23:49.688Z,100.00
2023-01-10T04:26:16.373Z,100.00
2023-01-10T04:28:43.145Z,100.00
2023-01-10T04:31:09.871Z,100.00
2023-01-10T04:33:36.680Z,100.00
2023-01-10T04:36:03.537Z,100.00
2023-01-10T04:38:30.260Z,100.00
2023-01-10T04:40:57.253Z,100.00
2023-01-10T04:43:24.726Z,100.00
2023-01-10T04:45:51.670Z,100.00
2023-01-10T04:48:18.581Z,100.00
2023-01-10T04:50:52.166Z,100.00
2023-01-10T04:53:18.939Z,100.00
2023-01-10T04:55:46.071Z,100.00
2023-01-10T04:58:12.952Z,100.00
2023-01-10T05:00:39.714Z,100.00
2023-01-10T05:03:06.623Z,100.00
2023-01-10T05:05:33.405Z,100.00
2023-01-10T05:08:00.129Z,100.00
2023-01-10T05:10:26.821Z,100.00
2023-01-10T05:12:53.507Z,100.00
2023-01-10T05:15:21.263Z,100.00
2023-01-10T05:17:48.003Z,100.00
2023-01-10T05:20:15.118Z,100.00
2023-01-10T05:22:42.305Z,100.00
2023-01-10T05:25:13.867Z,100.00
2023-01-10T05:27:42.957Z,100.00
2023-01-10T05:30:13.373Z,100.00
2023-01-10T05:32:40.125Z,100.00
2023-01-10T05:35:07.436Z,100.00
2023-01-10T05:37:34.028Z,100.00
2023-01-10T05:40:00.772Z,100.00
2023-01-10T05:42:27.518Z,100.00
2023-01-10T05:44:54.212Z,100.00
2023-01-10T05:47:20.908Z,100.00
2023-01-10T05:49:47.619Z,100.00
2023-01-10T05:52:14.835Z,100.00
2023-01-10T05:54:42.440Z,100.00
2023-01-10T05:57:09.198Z,100.00
2023-01-10T05:59:36.075Z,100.00
2023-01-10T06:02:02.849Z,100.00
2023-01-10T06:04:29.712Z,100.00
2023-01-10T06:06:56.453Z,100.00
2023-01-10T06:09:23.154Z,100.00
2023-01-10T06:11:49.958Z,100.00
2023-01-10T06:14:19.537Z,100.00
2023-01-10T06:16:47.183Z,100.00
2023-01-10T06:19:14.205Z,100.00
2023-01-10T06:21:41.297Z,100.00
2023-01-10T06:24:08.580Z,100.00
2023-01-10T06:26:35.342Z,100.00
2023-01-10T06:29:02.086Z,100.00
2023-01-10T06:31:28.893Z,100.00
2023-01-10T06:33:55.890Z,100.00
2023-01-10T06:36:22.612Z,100.00
2023-01-10T06:38:49.441Z,100.00
2023-01-10T06:41:16.468Z,100.00
2023-01-10T06:43:45.502Z,100.00
2023-01-10T06:46:13.499Z,100.00
2023-01-10T06:48:40.422Z,100.00
2023-01-10T06:51:07.319Z,100.00
2023-01-10T06:53:34.455Z,100.00
2023-01-10T06:56:01.246Z,100.00
2023-01-10T06:58:27.993Z,100.00
2023-01-10T07:00:54.777Z,100.00
2023-01-10T07:03:21.630Z,100.00
2023-01-10T07:05:48.370Z,100.00
2023-01-10T07:08:15.144Z,100.00
2023-01-10T07:10:42.371Z,100.00
2023-01-10T07:13:09.122Z,100.00
2023-01-10T07:15:36.084Z,100.00
2023-01-10T07:18:03.011Z,100.00
2023-01-10T07:20:29.759Z,100.00
2023-01-10T07:23:00.360Z,100.00
2023-01-10T07:25:28.492Z,100.00
2023-01-10T07:27:58.330Z,100.00
2023-01-10T07:30:26.119Z,100.00
2023-01-10T07:33:03.914Z,100.00
2023-01-10T07:35:30.631Z,100.00
2023-01-10T07:38:00.612Z,100.00
2023-01-10T07:40:27.493Z,100.00
2023-01-10T07:43:01.505Z,100.00
2023-01-10T07:45:28.863Z,100.00
2023-01-10T07:48:02.874Z,100.00
2023-01-10T07:50:30.835Z,100.00
2023-01-10T07:52:59.176Z,100.00
2023-01-10T07:55:27.554Z,100.00
2023-01-10T07:57:54.524Z,100.00
2023-01-10T08:00:21.355Z,100.00
2023-01-10T08:02:48.445Z,100.00
2023-01-10T08:05:15.278Z,100.00
2023-01-10T08:07:42.094Z,100.00
2023-01-10T08:10:09.724Z,100.00
2023-01-10T08:12:36.850Z,100.00
2023-01-10T08:15:04.014Z,100.00
2023-01-10T08:17:34.050Z,100.00
2023-01-10T08:20:00.837Z,100.00
2023-01-10T08:22:27.561Z,100.00
2023-01-10T08:24:54.604Z,100.00
2023-01-10T08:27:21.303Z,100.00
2023-01-10T08:29:48.092Z,100.00
2023-01-10T08:32:14.798Z,100.00
2023-01-10T08:34:41.490Z,100.00
2023-01-10T08:37:10.880Z,100.00
2023-01-10T08:39:39.255Z,100.00
2023-01-10T08:42:06.156Z,100.00
2023-01-10T08:44:32.903Z,100.00
2023-01-10T08:46:59.732Z,100.00
2023-01-10T08:49:26.543Z,100.00
2023-01-10T08:51:53.387Z,100.00
2023-01-10T08:54:20.115Z,100.00
2023-01-10T08:56:47.280Z,100.00
2023-01-10T08:59:14.173Z,100.00
2023-01-10T09:01:41.042Z,100.00
2023-01-10T09:04:07.991Z,100.00
2023-01-10T09:06:34.724Z,100.00
2023-01-10T09:09:01.430Z,100.00
2023-01-10T09:11:28.140Z,100.00
2023-01-10T09:13:54.849Z,100.00
2023-01-10T09:16:21.735Z,100.00
2023-01-10T09:18:48.664Z,100.00
2023-01-10T09:21:15.643Z,100.00
2023-01-10T09:23:43.708Z,100.00
2023-01-10T09:26:10.978Z,100.00
2023-01-10T09:28:37.867Z,100.00
2023-01-10T09:31:05.233Z,100.00
2023-01-10T09:33:45.210Z,100.00
2023-01-10T09:36:15.707Z,100.00
2023-01-10T09:38:43.103Z,100.00
2023-01-10T09:41:55.921Z,100.00
2023-01-10T09:44:39.964Z,100.00
2023-01-10T09:47:22.010Z,100.00
2023-01-10T09:50:06.509Z,100.00
2023-01-10T09:52:34.870Z,100.00
2023-01-10T09:55:25.117Z,100.00
2023-01-10T09:57:53.502Z,100.00
2023-01-10T10:00:23.034Z,100.00
2023-01-10T10:02:52.758Z,100.00
2023-01-10T10:05:20.874Z,100.00
2023-01-10T10:07:57.070Z,100.00
2023-01-10T10:10:35.538Z,100.00
2023-01-10T10:13:16.998Z,100.00
2023-01-10T10:16:00.665Z,100.00
2023-01-10T10:18:40.453Z,100.00
2023-01-10T10:21:23.195Z,100.00
2023-01-10T10:23:56.051Z,100.00
2023-01-10T10:26:46.392Z,100.00
2023-01-10T10:29:31.962Z,100.00
2023-01-10T10:32:01.866Z,100.00
2023-01-10T10:34:36.641Z,100.00
2023-01-10T10:37:15.598Z,100.00
2023-01-10T10:39:45.593Z,100.00
2023-01-10T10:42:15.115Z,100.00
2023-01-10T10:44:54.194Z,100.00
2023-01-10T10:47:22.507Z,100.00
2023-01-10T10:49:54.909Z,100.00
2023-01-10T10:52:34.641Z,100.00
2023-01-10T10:55:01.597Z,100.00
2023-01-10T10:57:28.853Z,100.00
2023-01-10T10:59:55.799Z,100.00
2023-01-10T11:02:26.785Z,100.00
2023-01-10T11:04:57.362Z,100.00
2023-01-10T11:07:24.476Z,100.00
2023-01-10T11:09:54.925Z,100.00
2023-01-10T11:12:33.259Z,100.00
2023-01-10T11:15:01.827Z,100.00
2023-01-10T11:17:30.772Z,100.00
2023-01-10T11:19:57.488Z,100.00
2023-01-10T11:22:25.091Z,100.00
2023-01-10T11:24:59.873Z,100.00
2023-01-10T11:27:44.911Z,100.00
2023-01-10T11:30:32.560Z,100.00
2023-01-10T11:33:04.886Z,100.00
2023-01-10T11:35:38.881Z,100.00
2023-01-10T11:38:18.125Z,100.00
2023-01-10T11:41:15.286Z,100.00
2023-01-10T11:43:42.005Z,100.00
2023-01-10T11:46:26.316Z,100.00
2023-01-10T11:49:25.748Z,100.00
2023-01-10T11:52:26.082Z,100.00
2023-01-10T11:54:58.312Z,100.00
2023-01-10T11:57:26.762Z,100.00
2023-01-10T11:59:54.209Z,100.00
2023-01-10T12:02:23.904Z,100.00
2023-01-10T12:04:51.113Z,100.00
2023-01-10T12:07:20.877Z,100.00
2023-01-10T12:10:00.946Z,100.00
2023-01-10T12:12:28.531Z,100.00
2023-01-10T12:14:56.616Z,100.00
2023-01-10T12:17:28.723Z,100.00
2023-01-10T12:19:58.585Z,100.00
2023-01-10T12:22:30.523Z,100.00
2023-01-10T12:24:57.283Z,100.00
2023-01-10T12:27:24.569Z,100.00
2023-01-10T12:30:12.604Z,100.00
2023-01-10T12:32:45.190Z,100.00
2023-01-10T12:35:24.511Z,100.00
2023-01-10T12:38:21.601Z,100.00
2023-01-10T12:40:58.745Z,100.00
2023-01-10T12:43:48.312Z,100.00
2023-01-10T12:46:46.827Z,100.00
2023-01-10T12:49:18.519Z,100.00
2023-01-10T12:51:46.281Z,100.00
2023-01-10T12:54:15.725Z,100.00
2023-01-10T12:56:42.432Z,100.00
2023-01-10T12:59:38.331Z,100.00
2023-01-10T13:02:07.283Z,100.00
2023-01-10T13:04:35.626Z,99.92
2023-01-10T13:07:02.337Z,99.46
2023-01-10T13:09:29.141Z,98.43
2023-01-10T13:12:14.924Z,97.61
2023-01-10T13:14:46.530Z,99.31
2023-01-10T13:17:47.223Z,100.00
2023-01-10T13:20:20.147Z,99.27
2023-01-10T13:22:57.850Z,98.38
2023-01-10T13:25:29.175Z,99.32
2023-01-10T13:28:02.827Z,99.04
2023-01-10T13:30:37.899Z,98.25
2023-01-10T13:33:06.475Z,99.16
2023-01-10T13:35:40.993Z,98.80
2023-01-10T13:38:27.220Z,99.59
2023-01-10T13:41:04.452Z,100.00
2023-01-10T13:43:34.810Z,99.90
2023-01-10T13:46:17.372Z,99.95
2023-01-10T13:48:50.451Z,99.89
2023-01-10T13:51:18.963Z,98.52
2023-01-10T13:53:55.268Z,99.39
2023-01-10T13:56:39.539Z,99.89
2023-01-10T13:59:18.403Z,99.97
2023-01-10T14:02:09.112Z,99.90
2023-01-10T14:04:39.099Z,99.31
2023-01-10T14:07:21.174Z,97.60
2023-01-10T14:09:48.172Z,96.54
2023-01-10T14:12:22.459Z,96.37
2023-01-10T14:14:57.916Z,94.46
2023-01-10T14:17:32.428Z,94.22
2023-01-10T14:20:02.190Z,94.78
2023-01-10T14:22:31.268Z,94.19
2023-01-10T14:25:02.605Z,94.44
2023-01-10T14:27:47.795Z,95.48
2023-01-10T14:30:33.007Z,94.88
2023-01-10T14:33:08.154Z,94.72
2023-01-10T14:35:39.702Z,93.96
2023-01-10T14:38:07.400Z,92.12
2023-01-10T14:40:44.882Z,92.06
2023-01-10T14:43:19.949Z,92.65
2023-01-10T14:46:11.039Z,91.37
2023-01-10T14:49:00.766Z,91.21
2023-01-10T14:51:28.907Z,92.20
2023-01-10T14:54:12.174Z,94.16
2023-01-10T14:56:43.551Z,93.48
2023-01-10T14:59:22.547Z,93.57
2023-01-10T15:01:50.525Z,92.36
2023-01-10T15:04:18.323Z,91.13
2023-01-10T15:07:00.325Z,93.19
2023-01-10T15:09:27.395Z,92.04
2023-01-10T15:11:54.134Z,90.49
2023-01-10T15:14:23.367Z,88.60
2023-01-10T15:16:50.081Z,88.32
2023-01-10T15:19:18.665Z,89.14
2023-01-10T15:21:45.898Z,89.97
2023-01-10T15:24:25.029Z,89.30
2023-01-10T15:26:52.353Z,87.03
2023-01-10T15:29:22.386Z,87.84
2023-01-10T15:31:49.155Z,88.50
2023-01-10T15:34:18.252Z,88.09
2023-01-10T15:36:55.613Z,90.12
2023-01-10T15:39:23.980Z,87.67
2023-01-10T15:41:51.530Z,86.06
2023-01-10T15:44:23.153Z,88.03
2023-01-10T15:46:56.880Z,87.89
2023-01-10T15:49:28.225Z,87.37
2023-01-10T15:51:55.020Z,87.09
2023-01-10T15:54:21.758Z,88.51
2023-01-10T15:56:48.549Z,88.18
2023-01-10T15:59:28.403Z,87.86
2023-01-10T16:01:57.372Z,87.07
2023-01-10T16:04:24.184Z,89.44
2023-01-10T16:06:53.711Z,90.38
2023-01-10T16:09:21.789Z,92.56
2023-01-10T16:12:10.549Z,92.32
2023-01-10T16:14:37.969Z,93.71
2023-01-10T16:17:05.097Z,96.58
2023-01-10T16:19:31.836Z,99.75
2023-01-10T16:21:59.241Z,98.46
2023-01-10T16:24:28.116Z,99.08
2023-01-10T16:26:55.585Z,99.71
2023-01-10T16:29:22.796Z,97.78
2023-01-10T16:31:52.182Z,99.01
2023-01-10T16:34:19.653Z,97.27
2023-01-10T16:36:46.531Z,97.03
2023-01-10T16:39:17.077Z,94.34
2023-01-10T16:42:02.656Z,94.63
2023-01-10T16:44:29.734Z,92.06
2023-01-10T16:46:56.451Z,91.10
2023-01-10T16:49:23.270Z,90.78
2023-01-10T16:51:50.415Z,90.44
2023-01-10T16:54:21.231Z,89.73
2023-01-10T16:56:48.414Z,89.02
2023-01-10T16:59:16.227Z,87.04
2023-01-10T17:01:46.544Z,88.72
2023-01-10T17:04:20.012Z,87.46
2023-01-10T17:06:46.723Z,90.93
2023-01-10T17:09:22.879Z,90.37
2023-01-10T17:11:52.101Z,89.14
2023-01-10T17:14:18.903Z,87.88
2023-01-10T17:16:46.340Z,87.99
2023-01-10T17:19:13.119Z,88.04
2023-01-10T17:21:39.821Z,87.61
2023-01-10T17:24:09.501Z,89.24
2023-01-10T17:26:36.487Z,90.01
2023-01-10T17:29:03.352Z,91.00
2023-01-10T17:31:30.347Z,91.93
2023-01-10T17:33:57.393Z,93.13
2023-01-10T17:36:29.133Z,93.26
2023-01-10T17:38:56.937Z,93.62
2023-01-10T17:41:23.639Z,93.38
2023-01-10T17:43:50.459Z,94.29
2023-01-10T17:46:17.916Z,95.86
2023-01-10T17:48:45.040Z,98.49
2023-01-10T17:51:13.230Z,96.28
2023-01-10T17:53:40.575Z,97.67
2023-01-10T17:56:07.566Z,99.89
2023-01-10T17:58:34.447Z,98.88
2023-01-10T18:01:01.359Z,99.31
2023-01-10T18:03:28.909Z,99.82
2023-01-10T18:05:57.002Z,99.99
2023-01-10T18:08:24.054Z,100.00
2023-01-10T18:10:51.139Z,100.00
2023-01-10T18:13:18.664Z,100.00
2023-01-10T18:15:47.468Z,100.00
2023-01-10T18:18:14.562Z,100.00
2023-01-10T18:20:42.319Z,100.00
2023-01-10T18:23:21.434Z,100.00
2023-01-10T18:25:55.969Z,100.00
2023-01-10T18:28:39.901Z,100.00
2023-01-10T18:31:09.334Z,100.00
2023-01-10T18:33:36.062Z,100.00
2023-01-10T18:36:04.163Z,100.00
2023-01-10T18:38:32.379Z,100.00
2023-01-10T18:40:59.415Z,100.00
2023-01-10T18:43:26.132Z,100.00
2023-01-10T18:46:01.000Z,100.00
2023-01-10T18:48:27.724Z,100.00
2023-01-10T18:50:55.393Z,100.00
2023-01-10T18:53:22.208Z,100.00
2023-01-10T18:56:07.741Z,100.00
2023-01-10T18:58:36.012Z,100.00
2023-01-10T19:01:12.927Z,100.00
2023-01-10T19:03:39.987Z,100.00
2023-01-10T19:06:07.959Z,100.00
2023-01-10T19:08:36.509Z,100.00
2023-01-10T19:11:13.385Z,100.00
2023-01-10T19:13:41.740Z,100.00
2023-01-10T19:16:19.766Z,100.00
2023-01-10T19:18:53.906Z,100.00
2023-01-10T19:21:20.722Z,100.00
2023-01-10T19:23:49.209Z,100.00
2023-01-10T19:26:16.188Z,100.00
2023-01-10T19:28:43.832Z,100.00
2023-01-10T19:31:27.272Z,100.00
2023-01-10T19:33:54.317Z,100.00
2023-01-10T19:36:22.415Z,100.00
2023-01-10T19:38:54.044Z,100.00
2023-01-10T19:41:20.980Z,100.00
2023-01-10T19:43:47.806Z,100.00
2023-01-10T19:46:14.817Z,100.00
2023-01-10T19:48:41.619Z,100.00
2023-01-10T19:51:09.636Z,100.00
2023-01-10T19:53:37.317Z,100.00
2023-01-10T19:56:05.365Z,100.00
2023-01-10T19:58:32.973Z,100.00
2023-01-10T20:01:29.287Z,100.00
2023-01-10T20:03:57.147Z,100.00
2023-01-10T20:06:25.899Z,100.00
2023-01-10T20:08:54.264Z,100.00
2023-01-10T20:11:22.170Z,100.00
2023-01-10T20:13:49.451Z,100.00
2023-01-10T20:16:17.246Z,100.00
2023-01-10T20:18:44.017Z,100.00
2023-01-10T20:21:12.026Z,100.00
2023-01-10T20:23:39.636Z,100.00
2023-01-10T20:26:22.759Z,100.00
2023-01-10T20:28:50.685Z,100.00
2023-01-10T20:31:20.173Z,100.00
2023-01-10T20:33:47.016Z,100.00
2023-01-10T20:36:16.273Z,100.00
2023-01-10T20:38:43.237Z,100.00
2023-01-10T20:41:18.601Z,100.00
2023-01-10T20:43:45.558Z,100.00
2023-01-10T20:46:14.315Z,100.00
2023-01-10T20:48:41.776Z,100.00
2023-01-10T20:51:11.145Z,100.00
2023-01-10T20:53:37.881Z,100.00
2023-01-10T20:56:06.073Z,100.00
2023-01-10T20:58:33.293Z,100.00
2023-01-10T21:00:59.935Z,100.00
2023-01-10T21:03:26.841Z,100.00
2023-01-10T21:05:54.085Z,100.00
2023-01-10T21:08:21.102Z,100.00
2023-01-10T21:10:48.180Z,100.00
2023-01-10T21:13:15.857Z,100.00
2023-01-10T21:15:43.820Z,100.00
2023-01-10T21:18:11.311Z,100.00
2023-01-10T21:20:42.270Z,100.00
2023-01-10T21:23:09.448Z,100.00
2023-01-10T21:25:36.434Z,100.00
2023-01-10T21:28:08.905Z,100.00
2023-01-10T21:30:36.559Z,100.00
2023-01-10T21:33:03.409Z,100.00
2023-01-10T21:35:30.422Z,100.00
2023-01-10T21:37:57.678Z,100.00
2023-01-10T21:40:24.876Z,100.00
2023-01-10T21:42:52.639Z,100.00
2023-01-10T21:45:21.124Z,100.00
2023-01-10T21:47:50.986Z,100.00
2023-01-10T21:50:18.723Z,100.00
2023-01-10T21:52:46.406Z,100.00
2023-01-10T21:55:14.041Z,100.00
2023-01-10T21:57:40.752Z,100.00
2023-01-10T22:00:10.271Z,100.00
2023-01-10T22:02:39.548Z,100.00
2023-01-10T22:05:07.183Z,100.00
2023-01-10T22:07:33.872Z,100.00
2023-01-10T22:10:01.225Z,100.00
2023-01-10T22:12:28.792Z,100.00
2023-01-10T22:14:55.851Z,100.00
2023-01-10T22:17:22.838Z,100.00
2023-01-10T22:19:49.533Z,100.00
2023-01-10T22:22:17.514Z,100.00
2023-01-10T22:24:47.494Z,100.00
2023-01-10T22:27:15.399Z,100.00
2023-01-10T22:29:42.393Z,100.00
2023-01-10T22:32:09.512Z,100.00
2023-01-10T22:34:36.287Z,100.00
2023-01-10T22:37:03.122Z,100.00
2023-01-10T22:39:29.889Z,100.00
2023-01-10T22:41:56.748Z,100.00
2023-01-10T22:44:26.262Z,100.00
2023-01-10T22:46:54.178Z,100.00
2023-01-10T22:49:21.341Z,100.00
2023-01-10T22:51:48.122Z,100.00
2023-01-10T22:54:18.068Z,100.00
2023-01-10T22:56:45.923Z,100.00
2023-01-10T22:59:12.955Z,100.00
2023-01-10T23:01:39.928Z,100.00
2023-01-10T23:04:07.022Z,100.00
2023-01-10T23:06:33.827Z,100.00
2023-01-10T23:09:00.658Z,100.00
2023-01-10T23:11:27.394Z,100.00
2023-01-10T23:13:54.144Z,100.00
2023-01-10T23:16:28.816Z,100.00
2023-01-10T23:18:56.957Z,100.00
2023-01-10T23:21:24.007Z,100.00
2023-01-10T23:23:50.746Z,100.00
2023-01-10T23:26:17.677Z,100.00
2023-01-10T23:28:47.173Z,100.00
2023-01-10T23:31:15.703Z,100.00
2023-01-10T23:33:42.480Z,100.00
2023-01-10T23:36:09.804Z,100.00
2023-01-10T23:38:36.595Z,100.00
2023-01-10T23:41:03.456Z,100.00
2023-01-10T23:43:30.213Z,100.00
2023-01-10T23:45:57.750Z,100.00
2023-01-10T23:48:24.689Z,100.00
2023-01-10T23:50:51.534Z,100.00
2023-01-10T23:53:18.442Z,100.00
2023-01-10T23:55:45.206Z,100.00
2023-01-10T23:58:12.099Z,100.00
